sensor_id;sensor_type;location;lat;lon;timestamp;P1;durP1;ratioP1;P2;durP2;ratioP2
76758;SDS011;65701;45.588;5.186;2023-08-17T00:02:22;5.75;;;4.50;;
76758;SDS011;65701;45.588;5.186;2023-08-17T00:04:48;6.75;;;6.00;;
76758;SDS011;65701;45.588;5.186;2023-08-17T00:07:13;6.00;;;4.50;;
76758;SDS011;65701;45.588;5.186;2023-08-17T00:09:39;4.25;;;4.25;;
76758;SDS011;65701;45.588;5.186;2023-08-17T00:12:05;4.50;;;4.50;;
76758;SDS011;65701;45.588;5.186;2023-08-17T00:14:30;8.00;;;6.00;;
76758;SDS011;65701;45.588;5.186;2023-08-17T00:16:56;4.50;;;4.50;;
76758;SDS011;65701;45.588;5.186;2023-08-17T00:19:21;4.00;;;4.00;;
76758;SDS011;65701;45.588;5.186;2023-08-17T00:21:47;4.50;;;2.75;;
76758;SDS011;65701;45.588;5.186;2023-08-17T00:24:12;6.50;;;5.00;;
76758;SDS011;65701;45.588;5.186;2023-08-17T00:26:38;5.00;;;3.50;;
76758;SDS011;65701;45.588;5.186;2023-08-17T00:29:03;4.50;;;4.50;;
76758;SDS011;65701;45.588;5.186;2023-08-17T00:31:29;3.75;;;3.75;;
76758;SDS011;65701;45.588;5.186;2023-08-17T00:33:59;5.00;;;5.00;;
76758;SDS011;65701;45.588;5.186;2023-08-17T00:36:24;5.00;;;5.00;;
76758;SDS011;65701;45.588;5.186;2023-08-17T00:38:50;4.00;;;4.00;;
76758;SDS011;65701;45.588;5.186;2023-08-17T00:41:15;6.50;;;5.00;;
76758;SDS011;65701;45.588;5.186;2023-08-17T00:43:41;4.00;;;4.00;;
76758;SDS011;65701;45.588;5.186;2023-08-17T00:46:06;7.25;;;6.00;;
76758;SDS011;65701;45.588;5.186;2023-08-17T00:48:32;4.25;;;4.25;;
76758;SDS011;65701;45.588;5.186;2023-08-17T00:50:59;5.00;;;4.25;;
76758;SDS011;65701;45.588;5.186;2023-08-17T00:53:26;5.00;;;5.00;;
76758;SDS011;65701;45.588;5.186;2023-08-17T00:55:54;4.75;;;4.75;;
76758;SDS011;65701;45.588;5.186;2023-08-17T00:58:21;9.75;;;6.50;;
76758;SDS011;65701;45.588;5.186;2023-08-17T01:00:47;5.00;;;5.00;;
76758;SDS011;65701;45.588;5.186;2023-08-17T01:03:12;4.25;;;4.25;;
76758;SDS011;65701;45.588;5.186;2023-08-17T01:05:38;5.00;;;4.25;;
76758;SDS011;65701;45.588;5.186;2023-08-17T01:08:04;4.25;;;4.00;;
76758;SDS011;65701;45.588;5.186;2023-08-17T01:10:37;6.00;;;5.00;;
76758;SDS011;65701;45.588;5.186;2023-08-17T01:13:15;5.00;;;5.00;;
76758;SDS011;65701;45.588;5.186;2023-08-17T01:15:49;5.75;;;5.75;;
76758;SDS011;65701;45.588;5.186;2023-08-17T01:20:48;5.25;;;5.00;;
76758;SDS011;65701;45.588;5.186;2023-08-17T01:23:15;5.00;;;4.50;;
76758;SDS011;65701;45.588;5.186;2023-08-17T01:25:40;5.00;;;5.00;;
76758;SDS011;65701;45.588;5.186;2023-08-17T01:28:06;6.00;;;6.00;;
76758;SDS011;65701;45.588;5.186;2023-08-17T01:30:44;4.25;;;4.25;;
76758;SDS011;65701;45.588;5.186;2023-08-17T01:33:18;6.00;;;6.00;;
76758;SDS011;65701;45.588;5.186;2023-08-17T01:35:54;5.25;;;5.25;;
76758;SDS011;65701;45.588;5.186;2023-08-17T01:38:29;6.25;;;6.00;;
76758;SDS011;65701;45.588;5.186;2023-08-17T01:40:57;5.75;;;5.75;;
76758;SDS011;65701;45.588;5.186;2023-08-17T01:43:25;6.75;;;5.00;;
76758;SDS011;65701;45.588;5.186;2023-08-17T01:45:51;6.50;;;6.50;;
76758;SDS011;65701;45.588;5.186;2023-08-17T01:48:17;6.00;;;4.50;;
76758;SDS011;65701;45.588;5.186;2023-08-17T01:50:43;7.25;;;5.50;;
76758;SDS011;65701;45.588;5.186;2023-08-17T01:53:08;7.75;;;5.00;;
76758;SDS011;65701;45.588;5.186;2023-08-17T01:55:34;6.00;;;6.00;;
76758;SDS011;65701;45.588;5.186;2023-08-17T01:58:00;4.50;;;4.50;;
76758;SDS011;65701;45.588;5.186;2023-08-17T02:00:26;7.00;;;6.75;;
76758;SDS011;65701;45.588;5.186;2023-08-17T02:02:51;5.50;;;5.50;;
76758;SDS011;65701;45.588;5.186;2023-08-17T02:05:17;5.00;;;5.00;;
76758;SDS011;65701;45.588;5.186;2023-08-17T02:07:42;4.00;;;4.00;;
76758;SDS011;65701;45.588;5.186;2023-08-17T02:10:08;5.00;;;5.00;;
76758;SDS011;65701;45.588;5.186;2023-08-17T02:12:34;6.50;;;4.75;;
76758;SDS011;65701;45.588;5.186;2023-08-17T02:14:59;5.50;;;5.00;;
76758;SDS011;65701;45.588;5.186;2023-08-17T02:17:24;7.75;;;6.00;;
76758;SDS011;65701;45.588;5.186;2023-08-17T02:19:50;3.75;;;3.75;;
76758;SDS011;65701;45.588;5.186;2023-08-17T02:22:15;6.25;;;6.25;;
76758;SDS011;65701;45.588;5.186;2023-08-17T02:24:41;6.25;;;5.50;;
76758;SDS011;65701;45.588;5.186;2023-08-17T02:27:07;6.25;;;6.25;;
76758;SDS011;65701;45.588;5.186;2023-08-17T02:29:34;5.50;;;5.50;;
76758;SDS011;65701;45.588;5.186;2023-08-17T02:31:59;5.25;;;5.25;;
76758;SDS011;65701;45.588;5.186;2023-08-17T02:34:25;5.25;;;5.25;;
76758;SDS011;65701;45.588;5.186;2023-08-17T02:36:50;5.75;;;5.75;;
76758;SDS011;65701;45.588;5.186;2023-08-17T02:39:16;6.75;;;6.75;;
76758;SDS011;65701;45.588;5.186;2023-08-17T02:41:41;8.00;;;6.50;;
76758;SDS011;65701;45.588;5.186;2023-08-17T02:44:07;8.00;;;6.75;;
76758;SDS011;65701;45.588;5.186;2023-08-17T02:46:32;6.50;;;6.50;;
76758;SDS011;65701;45.588;5.186;2023-08-17T02:48:58;7.00;;;7.00;;
76758;SDS011;65701;45.588;5.186;2023-08-17T02:51:23;5.75;;;5.75;;
76758;SDS011;65701;45.588;5.186;2023-08-17T02:53:49;6.00;;;6.00;;
76758;SDS011;65701;45.588;5.186;2023-08-17T02:56:14;7.00;;;7.00;;
76758;SDS011;65701;45.588;5.186;2023-08-17T02:58:40;6.00;;;6.00;;
76758;SDS011;65701;45.588;5.186;2023-08-17T03:01:06;7.00;;;7.00;;
76758;SDS011;65701;45.588;5.186;2023-08-17T03:03:32;7.25;;;6.00;;
76758;SDS011;65701;45.588;5.186;2023-08-17T03:05:57;8.50;;;8.50;;
76758;SDS011;65701;45.588;5.186;2023-08-17T03:08:23;7.00;;;5.25;;
76758;SDS011;65701;45.588;5.186;2023-08-17T03:10:48;6.25;;;5.75;;
76758;SDS011;65701;45.588;5.186;2023-08-17T03:13:14;5.25;;;5.25;;
76758;SDS011;65701;45.588;5.186;2023-08-17T03:15:39;7.25;;;6.75;;
76758;SDS011;65701;45.588;5.186;2023-08-17T03:18:05;7.00;;;7.00;;
76758;SDS011;65701;45.588;5.186;2023-08-17T03:20:31;7.50;;;7.50;;
76758;SDS011;65701;45.588;5.186;2023-08-17T03:22:56;6.00;;;6.00;;
76758;SDS011;65701;45.588;5.186;2023-08-17T03:25:22;7.50;;;7.50;;
76758;SDS011;65701;45.588;5.186;2023-08-17T03:27:47;6.00;;;6.00;;
76758;SDS011;65701;45.588;5.186;2023-08-17T03:30:13;6.75;;;6.75;;
76758;SDS011;65701;45.588;5.186;2023-08-17T03:32:38;7.50;;;7.50;;
76758;SDS011;65701;45.588;5.186;2023-08-17T03:35:04;4.25;;;4.25;;
76758;SDS011;65701;45.588;5.186;2023-08-17T03:37:30;6.50;;;6.50;;
76758;SDS011;65701;45.588;5.186;2023-08-17T03:39:55;7.50;;;6.25;;
76758;SDS011;65701;45.588;5.186;2023-08-17T03:42:21;6.75;;;6.00;;
76758;SDS011;65701;45.588;5.186;2023-08-17T03:44:46;6.00;;;6.00;;
76758;SDS011;65701;45.588;5.186;2023-08-17T03:47:12;7.50;;;6.25;;
76758;SDS011;65701;45.588;5.186;2023-08-17T03:49:37;5.25;;;5.25;;
76758;SDS011;65701;45.588;5.186;2023-08-17T03:52:03;6.50;;;6.50;;
76758;SDS011;65701;45.588;5.186;2023-08-17T03:54:29;6.00;;;6.00;;
76758;SDS011;65701;45.588;5.186;2023-08-17T03:56:54;5.25;;;5.25;;
76758;SDS011;65701;45.588;5.186;2023-08-17T03:59:19;7.00;;;6.50;;
76758;SDS011;65701;45.588;5.186;2023-08-17T04:01:45;8.25;;;5.75;;
76758;SDS011;65701;45.588;5.186;2023-08-17T04:04:10;6.00;;;6.00;;
76758;SDS011;65701;45.588;5.186;2023-08-17T04:06:36;5.75;;;5.75;;
76758;SDS011;65701;45.588;5.186;2023-08-17T04:09:04;6.00;;;6.00;;
76758;SDS011;65701;45.588;5.186;2023-08-17T04:11:30;7.00;;;6.25;;
76758;SDS011;65701;45.588;5.186;2023-08-17T04:13:55;6.00;;;6.00;;
76758;SDS011;65701;45.588;5.186;2023-08-17T04:16:20;5.75;;;5.75;;
76758;SDS011;65701;45.588;5.186;2023-08-17T04:18:46;6.25;;;6.00;;
76758;SDS011;65701;45.588;5.186;2023-08-17T04:21:12;6.75;;;6.75;;
76758;SDS011;65701;45.588;5.186;2023-08-17T04:23:37;6.50;;;5.50;;
76758;SDS011;65701;45.588;5.186;2023-08-17T04:26:02;6.75;;;5.00;;
76758;SDS011;65701;45.588;5.186;2023-08-17T04:28:28;8.25;;;4.75;;
76758;SDS011;65701;45.588;5.186;2023-08-17T04:30:53;6.75;;;6.25;;
76758;SDS011;65701;45.588;5.186;2023-08-17T04:33:19;9.00;;;6.50;;
76758;SDS011;65701;45.588;5.186;2023-08-17T04:35:48;5.00;;;5.00;;
76758;SDS011;65701;45.588;5.186;2023-08-17T04:38:13;9.00;;;6.75;;
76758;SDS011;65701;45.588;5.186;2023-08-17T04:40:39;6.00;;;6.00;;
76758;SDS011;65701;45.588;5.186;2023-08-17T04:43:04;6.00;;;6.00;;
76758;SDS011;65701;45.588;5.186;2023-08-17T04:45:30;8.50;;;7.00;;
76758;SDS011;65701;45.588;5.186;2023-08-17T04:47:55;10.00;;;6.00;;
76758;SDS011;65701;45.588;5.186;2023-08-17T04:50:21;6.25;;;6.25;;
76758;SDS011;65701;45.588;5.186;2023-08-17T04:52:46;8.50;;;6.00;;
76758;SDS011;65701;45.588;5.186;2023-08-17T04:55:15;5.50;;;5.50;;
76758;SDS011;65701;45.588;5.186;2023-08-17T04:57:40;7.00;;;5.25;;
76758;SDS011;65701;45.588;5.186;2023-08-17T05:00:06;5.75;;;5.75;;
76758;SDS011;65701;45.588;5.186;2023-08-17T05:02:35;6.25;;;6.25;;
76758;SDS011;65701;45.588;5.186;2023-08-17T05:05:04;8.75;;;6.00;;
76758;SDS011;65701;45.588;5.186;2023-08-17T05:07:30;6.00;;;6.00;;
76758;SDS011;65701;45.588;5.186;2023-08-17T05:09:56;7.00;;;6.00;;
76758;SDS011;65701;45.588;5.186;2023-08-17T05:12:21;8.25;;;6.25;;
76758;SDS011;65701;45.588;5.186;2023-08-17T05:14:46;7.50;;;6.75;;
76758;SDS011;65701;45.588;5.186;2023-08-17T05:17:12;8.75;;;6.50;;
76758;SDS011;65701;45.588;5.186;2023-08-17T05:19:38;6.00;;;5.75;;
76758;SDS011;65701;45.588;5.186;2023-08-17T05:22:05;5.25;;;5.25;;
76758;SDS011;65701;45.588;5.186;2023-08-17T05:24:33;6.75;;;6.25;;
76758;SDS011;65701;45.588;5.186;2023-08-17T05:26:58;6.25;;;6.25;;
76758;SDS011;65701;45.588;5.186;2023-08-17T05:29:24;7.75;;;7.50;;
76758;SDS011;65701;45.588;5.186;2023-08-17T05:31:49;5.50;;;5.00;;
76758;SDS011;65701;45.588;5.186;2023-08-17T05:34:15;7.25;;;7.25;;
76758;SDS011;65701;45.588;5.186;2023-08-17T05:36:40;5.25;;;5.00;;
76758;SDS011;65701;45.588;5.186;2023-08-17T05:39:06;5.25;;;5.25;;
76758;SDS011;65701;45.588;5.186;2023-08-17T05:41:31;5.00;;;5.00;;
76758;SDS011;65701;45.588;5.186;2023-08-17T05:43:57;5.75;;;5.75;;
76758;SDS011;65701;45.588;5.186;2023-08-17T05:46:23;7.25;;;7.25;;
76758;SDS011;65701;45.588;5.186;2023-08-17T05:48:49;7.00;;;7.00;;
76758;SDS011;65701;45.588;5.186;2023-08-17T05:51:14;6.50;;;5.50;;
76758;SDS011;65701;45.588;5.186;2023-08-17T05:53:40;7.50;;;6.25;;
76758;SDS011;65701;45.588;5.186;2023-08-17T05:56:05;7.75;;;6.00;;
76758;SDS011;65701;45.588;5.186;2023-08-17T05:58:31;6.00;;;6.00;;
76758;SDS011;65701;45.588;5.186;2023-08-17T06:01:03;6.75;;;6.75;;
76758;SDS011;65701;45.588;5.186;2023-08-17T06:03:30;5.00;;;5.00;;
76758;SDS011;65701;45.588;5.186;2023-08-17T06:05:55;4.50;;;4.00;;
76758;SDS011;65701;45.588;5.186;2023-08-17T06:08:20;6.00;;;6.00;;
76758;SDS011;65701;45.588;5.186;2023-08-17T06:10:46;7.75;;;7.00;;
76758;SDS011;65701;45.588;5.186;2023-08-17T06:13:11;5.50;;;5.25;;
76758;SDS011;65701;45.588;5.186;2023-08-17T06:15:37;4.25;;;4.25;;
76758;SDS011;65701;45.588;5.186;2023-08-17T06:18:02;5.50;;;5.50;;
76758;SDS011;65701;45.588;5.186;2023-08-17T06:20:28;4.50;;;4.50;;
76758;SDS011;65701;45.588;5.186;2023-08-17T06:22:53;5.00;;;5.00;;
76758;SDS011;65701;45.588;5.186;2023-08-17T06:25:19;4.00;;;4.00;;
76758;SDS011;65701;45.588;5.186;2023-08-17T06:27:44;7.25;;;5.00;;
76758;SDS011;65701;45.588;5.186;2023-08-17T06:30:10;4.00;;;4.00;;
76758;SDS011;65701;45.588;5.186;2023-08-17T06:32:36;7.50;;;7.00;;
76758;SDS011;65701;45.588;5.186;2023-08-17T06:35:02;4.25;;;4.25;;
76758;SDS011;65701;45.588;5.186;2023-08-17T06:37:27;7.25;;;6.00;;
76758;SDS011;65701;45.588;5.186;2023-08-17T06:39:53;6.50;;;5.00;;
76758;SDS011;65701;45.588;5.186;2023-08-17T06:42:19;4.00;;;4.00;;
76758;SDS011;65701;45.588;5.186;2023-08-17T06:44:44;8.25;;;6.00;;
76758;SDS011;65701;45.588;5.186;2023-08-17T06:47:10;5.00;;;5.00;;
76758;SDS011;65701;45.588;5.186;2023-08-17T06:49:35;6.25;;;5.50;;
76758;SDS011;65701;45.588;5.186;2023-08-17T06:52:01;6.75;;;6.75;;
76758;SDS011;65701;45.588;5.186;2023-08-17T06:54:26;4.50;;;4.50;;
76758;SDS011;65701;45.588;5.186;2023-08-17T06:56:52;6.00;;;5.00;;
76758;SDS011;65701;45.588;5.186;2023-08-17T06:59:17;7.50;;;5.00;;
76758;SDS011;65701;45.588;5.186;2023-08-17T07:01:42;5.75;;;5.25;;
76758;SDS011;65701;45.588;5.186;2023-08-17T07:04:08;7.25;;;6.50;;
76758;SDS011;65701;45.588;5.186;2023-08-17T07:06:34;3.75;;;3.75;;
76758;SDS011;65701;45.588;5.186;2023-08-17T07:08:59;7.00;;;5.25;;
76758;SDS011;65701;45.588;5.186;2023-08-17T07:11:25;6.25;;;6.25;;
76758;SDS011;65701;45.588;5.186;2023-08-17T07:13:50;6.00;;;5.25;;
76758;SDS011;65701;45.588;5.186;2023-08-17T07:16:16;6.50;;;5.75;;
76758;SDS011;65701;45.588;5.186;2023-08-17T07:18:41;7.00;;;6.00;;
76758;SDS011;65701;45.588;5.186;2023-08-17T07:21:07;5.00;;;5.00;;
76758;SDS011;65701;45.588;5.186;2023-08-17T07:23:32;5.00;;;5.00;;
76758;SDS011;65701;45.588;5.186;2023-08-17T07:25:58;6.75;;;6.75;;
76758;SDS011;65701;45.588;5.186;2023-08-17T07:28:23;5.00;;;5.00;;
76758;SDS011;65701;45.588;5.186;2023-08-17T07:30:49;4.50;;;4.50;;
76758;SDS011;65701;45.588;5.186;2023-08-17T07:33:14;6.00;;;4.50;;
76758;SDS011;65701;45.588;5.186;2023-08-17T07:35:40;6.00;;;6.00;;
76758;SDS011;65701;45.588;5.186;2023-08-17T07:38:05;4.75;;;4.75;;
76758;SDS011;65701;45.588;5.186;2023-08-17T07:40:31;7.00;;;6.00;;
76758;SDS011;65701;45.588;5.186;2023-08-17T07:42:56;5.75;;;5.75;;
76758;SDS011;65701;45.588;5.186;2023-08-17T07:45:22;5.00;;;5.00;;
76758;SDS011;65701;45.588;5.186;2023-08-17T07:47:47;6.25;;;5.75;;
76758;SDS011;65701;45.588;5.186;2023-08-17T07:50:13;7.00;;;7.00;;
76758;SDS011;65701;45.588;5.186;2023-08-17T07:52:38;5.25;;;5.25;;
76758;SDS011;65701;45.588;5.186;2023-08-17T07:55:04;7.25;;;7.25;;
76758;SDS011;65701;45.588;5.186;2023-08-17T07:57:30;7.75;;;7.75;;
76758;SDS011;65701;45.588;5.186;2023-08-17T07:59:55;7.00;;;6.50;;
76758;SDS011;65701;45.588;5.186;2023-08-17T08:02:21;5.50;;;4.50;;
76758;SDS011;65701;45.588;5.186;2023-08-17T08:04:46;7.75;;;5.25;;
76758;SDS011;65701;45.588;5.186;2023-08-17T08:07:12;5.75;;;4.50;;
76758;SDS011;65701;45.588;5.186;2023-08-17T08:09:37;8.00;;;5.00;;
76758;SDS011;65701;45.588;5.186;2023-08-17T08:12:03;5.00;;;5.00;;
76758;SDS011;65701;45.588;5.186;2023-08-17T08:14:28;4.75;;;3.50;;
76758;SDS011;65701;45.588;5.186;2023-08-17T08:16:54;6.50;;;6.50;;
76758;SDS011;65701;45.588;5.186;2023-08-17T08:19:20;5.25;;;5.25;;
76758;SDS011;65701;45.588;5.186;2023-08-17T08:21:45;9.50;;;7.00;;
76758;SDS011;65701;45.588;5.186;2023-08-17T08:24:11;8.00;;;5.75;;
76758;SDS011;65701;45.588;5.186;2023-08-17T08:26:36;5.25;;;5.25;;
76758;SDS011;65701;45.588;5.186;2023-08-17T08:29:02;5.00;;;5.00;;
76758;SDS011;65701;45.588;5.186;2023-08-17T08:31:27;5.25;;;5.25;;
76758;SDS011;65701;45.588;5.186;2023-08-17T08:33:53;4.75;;;4.75;;
76758;SDS011;65701;45.588;5.186;2023-08-17T08:36:19;8.75;;;7.75;;
76758;SDS011;65701;45.588;5.186;2023-08-17T08:38:44;5.50;;;5.50;;
76758;SDS011;65701;45.588;5.186;2023-08-17T08:41:10;6.00;;;3.50;;
76758;SDS011;65701;45.588;5.186;2023-08-17T08:43:37;4.00;;;4.00;;
76758;SDS011;65701;45.588;5.186;2023-08-17T08:46:03;6.00;;;6.00;;
76758;SDS011;65701;45.588;5.186;2023-08-17T08:48:29;5.25;;;4.50;;
76758;SDS011;65701;45.588;5.186;2023-08-17T08:50:57;4.50;;;4.50;;
76758;SDS011;65701;45.588;5.186;2023-08-17T08:53:32;4.25;;;4.25;;
76758;SDS011;65701;45.588;5.186;2023-08-17T08:56:03;5.00;;;5.00;;
76758;SDS011;65701;45.588;5.186;2023-08-17T08:58:29;6.00;;;6.00;;
76758;SDS011;65701;45.588;5.186;2023-08-17T09:00:57;4.00;;;4.00;;
76758;SDS011;65701;45.588;5.186;2023-08-17T09:03:23;6.75;;;6.75;;
76758;SDS011;65701;45.588;5.186;2023-08-17T09:05:50;4.50;;;4.50;;
76758;SDS011;65701;45.588;5.186;2023-08-17T09:08:20;4.50;;;4.50;;
76758;SDS011;65701;45.588;5.186;2023-08-17T09:10:47;7.00;;;5.75;;
76758;SDS011;65701;45.588;5.186;2023-08-17T09:13:14;5.50;;;5.50;;
76758;SDS011;65701;45.588;5.186;2023-08-17T09:15:40;6.50;;;5.75;;
76758;SDS011;65701;45.588;5.186;2023-08-17T09:18:06;5.00;;;5.00;;
76758;SDS011;65701;45.588;5.186;2023-08-17T09:20:43;5.25;;;5.25;;
76758;SDS011;65701;45.588;5.186;2023-08-17T09:23:13;9.00;;;7.25;;
76758;SDS011;65701;45.588;5.186;2023-08-17T09:25:41;5.00;;;5.00;;
76758;SDS011;65701;45.588;5.186;2023-08-17T09:28:11;7.25;;;5.50;;
76758;SDS011;65701;45.588;5.186;2023-08-17T09:33:22;5.75;;;4.25;;
76758;SDS011;65701;45.588;5.186;2023-08-17T09:35:52;7.00;;;5.25;;
76758;SDS011;65701;45.588;5.186;2023-08-17T09:38:19;5.50;;;5.50;;
76758;SDS011;65701;45.588;5.186;2023-08-17T09:40:45;5.25;;;5.25;;
76758;SDS011;65701;45.588;5.186;2023-08-17T09:43:11;5.25;;;5.25;;
76758;SDS011;65701;45.588;5.186;2023-08-17T09:45:38;4.50;;;4.50;;
76758;SDS011;65701;45.588;5.186;2023-08-17T09:48:05;5.75;;;5.50;;
76758;SDS011;65701;45.588;5.186;2023-08-17T09:50:32;6.25;;;6.00;;
76758;SDS011;65701;45.588;5.186;2023-08-17T09:52:57;5.50;;;5.50;;
76758;SDS011;65701;45.588;5.186;2023-08-17T09:55:23;6.50;;;5.50;;
76758;SDS011;65701;45.588;5.186;2023-08-17T09:57:49;5.00;;;5.00;;
76758;SDS011;65701;45.588;5.186;2023-08-17T10:00:16;3.50;;;3.50;;
76758;SDS011;65701;45.588;5.186;2023-08-17T10:02:49;6.50;;;6.00;;
76758;SDS011;65701;45.588;5.186;2023-08-17T10:05:17;5.00;;;5.00;;
76758;SDS011;65701;45.588;5.186;2023-08-17T10:07:46;4.75;;;4.75;;
76758;SDS011;65701;45.588;5.186;2023-08-17T10:10:14;7.25;;;4.75;;
76758;SDS011;65701;45.588;5.186;2023-08-17T10:12:44;5.75;;;5.75;;
76758;SDS011;65701;45.588;5.186;2023-08-17T10:15:16;5.25;;;5.25;;
76758;SDS011;65701;45.588;5.186;2023-08-17T10:20:57;4.50;;;4.25;;
76758;SDS011;65701;45.588;5.186;2023-08-17T10:23:27;5.50;;;5.50;;
76758;SDS011;65701;45.588;5.186;2023-08-17T10:25:54;5.75;;;5.75;;
76758;SDS011;65701;45.588;5.186;2023-08-17T10:28:24;4.25;;;4.25;;
76758;SDS011;65701;45.588;5.186;2023-08-17T10:30:49;4.75;;;4.75;;
76758;SDS011;65701;45.588;5.186;2023-08-17T10:33:16;3.00;;;2.50;;
76758;SDS011;65701;45.588;5.186;2023-08-17T10:35:42;4.50;;;4.50;;
76758;SDS011;65701;45.588;5.186;2023-08-17T10:38:09;4.50;;;4.50;;
76758;SDS011;65701;45.588;5.186;2023-08-17T10:40:36;4.50;;;4.50;;
76758;SDS011;65701;45.588;5.186;2023-08-17T10:43:06;4.00;;;3.00;;
76758;SDS011;65701;45.588;5.186;2023-08-17T10:45:33;3.75;;;3.75;;
76758;SDS011;65701;45.588;5.186;2023-08-17T10:48:45;3.00;;;2.25;;
76758;SDS011;65701;45.588;5.186;2023-08-17T10:51:02;2.25;;;2.25;;
76758;SDS011;65701;45.588;5.186;2023-08-17T10:53:35;3.50;;;3.50;;
76758;SDS011;65701;45.588;5.186;2023-08-17T10:56:06;4.75;;;4.00;;
76758;SDS011;65701;45.588;5.186;2023-08-17T10:58:32;3.75;;;3.75;;
76758;SDS011;65701;45.588;5.186;2023-08-17T11:00:59;3.25;;;3.25;;
76758;SDS011;65701;45.588;5.186;2023-08-17T11:03:24;3.00;;;3.00;;
76758;SDS011;65701;45.588;5.186;2023-08-17T11:05:52;2.75;;;2.75;;
76758;SDS011;65701;45.588;5.186;2023-08-17T11:13:28;3.25;;;2.75;;
76758;SDS011;65701;45.588;5.186;2023-08-17T11:15:56;4.00;;;4.00;;
76758;SDS011;65701;45.588;5.186;2023-08-17T11:18:23;2.75;;;2.75;;
76758;SDS011;65701;45.588;5.186;2023-08-17T11:20:48;4.00;;;3.00;;
76758;SDS011;65701;45.588;5.186;2023-08-17T11:23:14;3.00;;;2.00;;
76758;SDS011;65701;45.588;5.186;2023-08-17T11:25:41;2.50;;;2.50;;
76758;SDS011;65701;45.588;5.186;2023-08-17T11:28:07;2.25;;;2.25;;
76758;SDS011;65701;45.588;5.186;2023-08-17T11:30:34;2.25;;;2.25;;
76758;SDS011;65701;45.588;5.186;2023-08-17T11:33:02;3.00;;;3.00;;
76758;SDS011;65701;45.588;5.186;2023-08-17T11:35:28;2.00;;;1.50;;
76758;SDS011;65701;45.588;5.186;2023-08-17T11:37:54;2.00;;;2.00;;
76758;SDS011;65701;45.588;5.186;2023-08-17T11:40:19;4.00;;;4.00;;
76758;SDS011;65701;45.588;5.186;2023-08-17T11:42:45;2.00;;;2.00;;
76758;SDS011;65701;45.588;5.186;2023-08-17T11:45:11;2.00;;;2.00;;
76758;SDS011;65701;45.588;5.186;2023-08-17T11:47:40;2.00;;;2.00;;
76758;SDS011;65701;45.588;5.186;2023-08-17T11:50:09;3.25;;;3.25;;
76758;SDS011;65701;45.588;5.186;2023-08-17T11:52:35;3.00;;;3.00;;
76758;SDS011;65701;45.588;5.186;2023-08-17T11:55:04;3.75;;;3.75;;
76758;SDS011;65701;45.588;5.186;2023-08-17T11:57:36;4.00;;;4.00;;
76758;SDS011;65701;45.588;5.186;2023-08-17T12:00:03;3.00;;;3.00;;
76758;SDS011;65701;45.588;5.186;2023-08-17T12:02:31;3.00;;;3.00;;
76758;SDS011;65701;45.588;5.186;2023-08-17T12:05:02;3.00;;;3.00;;
76758;SDS011;65701;45.588;5.186;2023-08-17T12:07:31;2.00;;;2.00;;
76758;SDS011;65701;45.588;5.186;2023-08-17T12:09:57;3.00;;;2.75;;
76758;SDS011;65701;45.588;5.186;2023-08-17T12:12:23;2.25;;;2.25;;
76758;SDS011;65701;45.588;5.186;2023-08-17T12:14:49;2.00;;;2.00;;
76758;SDS011;65701;45.588;5.186;2023-08-17T12:17:15;3.00;;;3.00;;
76758;SDS011;65701;45.588;5.186;2023-08-17T12:19:42;2.75;;;2.75;;
76758;SDS011;65701;45.588;5.186;2023-08-17T12:22:08;1.00;;;1.00;;
76758;SDS011;65701;45.588;5.186;2023-08-17T12:24:33;2.75;;;2.00;;
76758;SDS011;65701;45.588;5.186;2023-08-17T12:27:01;2.50;;;2.00;;
76758;SDS011;65701;45.588;5.186;2023-08-17T12:29:27;2.25;;;1.50;;
76758;SDS011;65701;45.588;5.186;2023-08-17T12:31:54;4.00;;;2.00;;
76758;SDS011;65701;45.588;5.186;2023-08-17T12:34:22;4.00;;;2.50;;
76758;SDS011;65701;45.588;5.186;2023-08-17T12:36:48;2.00;;;2.00;;
76758;SDS011;65701;45.588;5.186;2023-08-17T12:39:14;3.50;;;2.00;;
76758;SDS011;65701;45.588;5.186;2023-08-17T12:41:40;1.25;;;1.25;;
76758;SDS011;65701;45.588;5.186;2023-08-17T12:44:05;1.25;;;1.25;;
76758;SDS011;65701;45.588;5.186;2023-08-17T12:46:31;1.50;;;1.50;;
76758;SDS011;65701;45.588;5.186;2023-08-17T12:48:58;3.00;;;3.00;;
76758;SDS011;65701;45.588;5.186;2023-08-17T12:51:24;2.00;;;2.00;;
76758;SDS011;65701;45.588;5.186;2023-08-17T12:53:49;3.00;;;3.00;;
76758;SDS011;65701;45.588;5.186;2023-08-17T12:56:15;3.00;;;3.00;;
76758;SDS011;65701;45.588;5.186;2023-08-17T12:58:41;2.00;;;2.00;;
76758;SDS011;65701;45.588;5.186;2023-08-17T13:01:06;1.00;;;1.00;;
76758;SDS011;65701;45.588;5.186;2023-08-17T13:03:32;2.00;;;2.00;;
76758;SDS011;65701;45.588;5.186;2023-08-17T13:05:57;1.00;;;1.00;;
76758;SDS011;65701;45.588;5.186;2023-08-17T13:08:22;1.50;;;1.50;;
76758;SDS011;65701;45.588;5.186;2023-08-17T13:10:48;1.50;;;1.50;;
76758;SDS011;65701;45.588;5.186;2023-08-17T13:13:14;1.75;;;1.75;;
76758;SDS011;65701;45.588;5.186;2023-08-17T13:15:39;3.75;;;3.75;;
76758;SDS011;65701;45.588;5.186;2023-08-17T13:18:06;2.25;;;2.25;;
76758;SDS011;65701;45.588;5.186;2023-08-17T13:20:31;2.50;;;2.50;;
76758;SDS011;65701;45.588;5.186;2023-08-17T13:22:57;3.00;;;3.00;;
76758;SDS011;65701;45.588;5.186;2023-08-17T13:25:22;3.50;;;2.50;;
76758;SDS011;65701;45.588;5.186;2023-08-17T13:27:48;4.75;;;3.75;;
76758;SDS011;65701;45.588;5.186;2023-08-17T13:30:13;4.25;;;4.25;;
76758;SDS011;65701;45.588;5.186;2023-08-17T13:32:38;3.75;;;2.75;;
76758;SDS011;65701;45.588;5.186;2023-08-17T13:35:04;3.75;;;2.75;;
76758;SDS011;65701;45.588;5.186;2023-08-17T13:37:30;5.00;;;5.00;;
76758;SDS011;65701;45.588;5.186;2023-08-17T13:39:56;3.25;;;3.25;;
76758;SDS011;65701;45.588;5.186;2023-08-17T13:42:23;6.00;;;4.75;;
76758;SDS011;65701;45.588;5.186;2023-08-17T13:44:48;7.25;;;6.00;;
76758;SDS011;65701;45.588;5.186;2023-08-17T13:47:14;5.00;;;3.75;;
76758;SDS011;65701;45.588;5.186;2023-08-17T13:49:39;4.00;;;3.00;;
76758;SDS011;65701;45.588;5.186;2023-08-17T13:52:05;3.00;;;3.00;;
76758;SDS011;65701;45.588;5.186;2023-08-17T13:54:30;3.50;;;3.50;;
76758;SDS011;65701;45.588;5.186;2023-08-17T13:56:55;3.00;;;3.00;;
76758;SDS011;65701;45.588;5.186;2023-08-17T13:59:21;4.25;;;3.00;;
76758;SDS011;65701;45.588;5.186;2023-08-17T14:01:46;3.25;;;3.25;;
76758;SDS011;65701;45.588;5.186;2023-08-17T14:04:12;3.25;;;3.25;;
76758;SDS011;65701;45.588;5.186;2023-08-17T14:06:42;3.00;;;3.00;;
76758;SDS011;65701;45.588;5.186;2023-08-17T14:09:08;4.00;;;4.00;;
76758;SDS011;65701;45.588;5.186;2023-08-17T14:11:34;3.25;;;3.25;;
76758;SDS011;65701;45.588;5.186;2023-08-17T14:13:59;5.00;;;4.00;;
76758;SDS011;65701;45.588;5.186;2023-08-17T14:16:25;3.00;;;3.00;;
76758;SDS011;65701;45.588;5.186;2023-08-17T14:18:53;4.00;;;3.00;;
76758;SDS011;65701;45.588;5.186;2023-08-17T14:21:24;4.00;;;2.00;;
76758;SDS011;65701;45.588;5.186;2023-08-17T14:23:50;2.25;;;2.25;;
76758;SDS011;65701;45.588;5.186;2023-08-17T14:26:16;3.25;;;3.25;;
76758;SDS011;65701;45.588;5.186;2023-08-17T14:28:41;2.75;;;2.75;;
76758;SDS011;65701;45.588;5.186;2023-08-17T14:31:07;4.00;;;4.00;;
76758;SDS011;65701;45.588;5.186;2023-08-17T14:33:36;4.00;;;4.00;;
76758;SDS011;65701;45.588;5.186;2023-08-17T14:36:02;3.00;;;3.00;;
76758;SDS011;65701;45.588;5.186;2023-08-17T14:38:28;2.25;;;2.25;;
76758;SDS011;65701;45.588;5.186;2023-08-17T14:40:53;2.00;;;2.00;;
76758;SDS011;65701;45.588;5.186;2023-08-17T14:43:19;3.75;;;2.75;;
76758;SDS011;65701;45.588;5.186;2023-08-17T14:45:44;3.25;;;3.25;;
76758;SDS011;65701;45.588;5.186;2023-08-17T14:48:10;3.00;;;3.00;;
76758;SDS011;65701;45.588;5.186;2023-08-17T14:50:35;4.00;;;4.00;;
76758;SDS011;65701;45.588;5.186;2023-08-17T14:53:02;4.00;;;4.00;;
76758;SDS011;65701;45.588;5.186;2023-08-17T14:55:35;4.00;;;4.00;;
76758;SDS011;65701;45.588;5.186;2023-08-17T14:58:01;3.75;;;3.75;;